Time;durP1;ratioP1;P1;durP2;ratioP2;P2;SDS_P1;SDS_P2;PMS_P1;PMS_P2;Temp;Humidity;BMP_temperature;BMP_pressure;BME280_temperature;BME280_humidity;BME280_pressure;Samples;Min_cycle;Max_cycle;Signal;HPM_P1;HPM_P2
2023/10/11 00:02:20;;;;;;;10.70;4.70;;;19.20;99.90;;;;;;5024546;28;20469;-63
2023/10/11 00:04:48;;;;;;;7.90;5.30;;;19.20;99.90;;;;;;5054953;28;20427;-64
2023/10/11 00:07:20;;;;;;;6.40;4.70;;;19.20;99.90;;;;;;5091644;28;20493;-64
2023/10/11 00:09:55;;;;;;;7.43;4.10;;;19.20;99.90;;;;;;5092551;28;20418;-64
2023/10/11 00:12:22;;;;;;;8.33;4.03;;;19.20;99.90;;;;;;5095695;28;20425;-63
2023/10/11 00:15:38;;;;;;;7.73;4.20;;;19.20;99.90;;;;;;5097306;28;20426;-62
2023/10/11 00:18:07;;;;;;;7.70;4.80;;;19.20;99.90;;;;;;5069646;28;20513;-63
2023/10/11 00:23:04;;;;;;;6.07;4.20;;;19.10;99.90;;;;;;5099180;28;20437;-63
2023/10/11 00:25:30;;;;;;;5.90;4.60;;;19.10;99.90;;;;;;5100141;28;20433;-64
2023/10/11 00:28:08;;;;;;;10.90;4.90;;;19.10;99.90;;;;;;5098220;28;20989;-63
2023/10/11 00:31:23;;;;;;;7.27;4.40;;;19.00;99.90;;;;;;5105909;28;20191;-63
2023/10/11 00:33:48;;;;;;;5.40;4.20;;;19.00;99.90;;;;;;5067666;28;20532;-64
2023/10/11 00:39:10;;;;;;;6.53;4.80;;;18.90;99.90;;;;;;5087139;28;20223;-63
2023/10/11 00:41:40;;;;;;;7.10;4.60;;;19.00;99.90;;;;;;5102374;28;20798;-63
2023/10/11 00:44:06;;;;;;;7.30;4.60;;;18.90;99.90;;;;;;5096633;28;20430;-64
2023/10/11 00:46:50;;;;;;;7.80;4.57;;;18.90;99.90;;;;;;5096675;28;20762;-63
2023/10/11 00:49:16;;;;;;;6.20;5.00;;;19.00;99.90;;;;;;5096267;28;20215;-64
2023/10/11 00:51:48;;;;;;;6.70;4.37;;;18.90;99.90;;;;;;5095197;28;20959;-63
2023/10/11 00:54:23;;;;;;;7.77;5.10;;;19.00;99.90;;;;;;5103676;28;20688;-64
2023/10/11 00:57:01;;;;;;;5.87;4.77;;;18.90;99.90;;;;;;5096685;28;20426;-64
2023/10/11 00:59:35;;;;;;;6.63;4.43;;;18.90;99.90;;;;;;5103954;28;20469;-64
2023/10/11 01:02:39;;;;;;;6.57;4.43;;;18.90;99.90;;;;;;5095152;28;21133;-64
2023/10/11 01:05:16;;;;;;;8.87;4.60;;;18.90;99.90;;;;;;5039131;28;20858;-63
2023/10/11 01:08:00;;;;;;;9.33;4.60;;;18.90;99.90;;;;;;5079844;28;20441;-63
2023/10/11 01:10:33;;;;;;;6.73;4.40;;;18.90;99.90;;;;;;5104618;28;20437;-63
2023/10/11 01:13:21;;;;;;;5.80;4.17;;;18.90;99.90;;;;;;5104570;28;20436;-63
2023/10/11 01:15:47;;;;;;;7.77;4.40;;;18.90;99.90;;;;;;5103901;28;20432;-64
2023/10/11 01:19:16;;;;;;;7.80;5.10;;;18.90;99.90;;;;;;5101337;28;20531;-64
2023/10/11 01:22:19;;;;;;;8.00;4.70;;;18.90;99.90;;;;;;5040731;28;21148;-63
2023/10/11 01:24:47;;;;;;;6.73;4.40;;;18.80;99.90;;;;;;4975716;28;20435;-63
2023/10/11 01:27:19;;;;;;;7.77;4.53;;;18.80;99.90;;;;;;4990706;28;20482;-64
2023/10/11 01:30:16;;;;;;;7.20;4.60;;;18.80;99.90;;;;;;5035337;28;20435;-64
2023/10/11 01:32:42;;;;;;;7.90;4.33;;;18.80;99.90;;;;;;5040243;28;20481;-64
2023/10/11 01:35:58;;;;;;;11.70;5.10;;;18.80;99.90;;;;;;5039517;28;20441;-64
2023/10/11 01:39:08;;;;;;;9.50;5.20;;;18.80;99.90;;;;;;5040773;28;20228;-63
2023/10/11 01:41:40;;;;;;;11.13;4.40;;;18.70;99.90;;;;;;4986765;28;20441;-64
2023/10/11 01:44:12;;;;;;;8.17;4.77;;;18.70;99.90;;;;;;4979384;28;20537;-63
2023/10/11 01:46:53;;;;;;;5.87;4.83;;;18.70;99.90;;;;;;5016368;28;20487;-63
2023/10/11 01:49:24;;;;;;;6.03;4.70;;;18.70;99.90;;;;;;5042643;28;20470;-63
2023/10/11 01:51:54;;;;;;;7.90;4.70;;;18.70;99.90;;;;;;5093738;28;20484;-64
2023/10/11 01:54:23;;;;;;;9.07;5.63;;;18.70;99.90;;;;;;5096825;28;20444;-64
2023/10/11 01:56:52;;;;;;;8.07;5.37;;;18.70;99.90;;;;;;5085192;28;20444;-64
2023/10/11 01:59:18;;;;;;;10.07;5.20;;;18.60;99.90;;;;;;5079592;28;20481;-63
2023/10/11 02:02:02;;;;;;;8.13;5.27;;;18.70;99.90;;;;;;5085680;28;20438;-64
2023/10/11 02:04:29;;;;;;;7.47;5.40;;;18.70;99.90;;;;;;5100460;28;20448;-63
2023/10/11 02:06:57;;;;;;;9.67;5.47;;;18.70;99.90;;;;;;5098784;28;21191;-64
2023/10/11 02:09:26;;;;;;;7.50;5.10;;;18.70;99.90;;;;;;5102910;28;20437;-63
2023/10/11 02:11:58;;;;;;;10.93;5.80;;;18.70;99.90;;;;;;5085433;28;21427;-63
2023/10/11 02:14:25;;;;;;;13.07;5.50;;;18.60;99.90;;;;;;5103115;28;20433;-64
2023/10/11 02:16:57;;;;;;;9.13;5.60;;;18.70;99.90;;;;;;5084736;28;20421;-64
2023/10/11 02:19:45;;;;;;;9.10;4.87;;;18.70;99.90;;;;;;5096057;28;20515;-63
2023/10/11 02:22:22;;;;;;;9.83;6.10;;;18.70;99.90;;;;;;5102043;28;20931;-63
2023/10/11 02:25:09;;;;;;;12.63;5.80;;;18.60;99.90;;;;;;5091100;28;20429;-63
2023/10/11 02:27:36;;;;;;;11.23;4.90;;;18.60;99.90;;;;;;5080364;28;20433;-63
2023/10/11 02:30:07;;;;;;;13.53;5.83;;;18.70;99.90;;;;;;5090267;28;21020;-63
2023/10/11 02:32:38;;;;;;;6.87;4.50;;;18.70;99.90;;;;;;5096351;28;20456;-64
2023/10/11 02:35:28;;;;;;;11.53;5.60;;;18.60;99.90;;;;;;5102703;28;20468;-64
2023/10/11 02:37:59;;;;;;;6.73;5.03;;;18.60;99.90;;;;;;5091893;28;20468;-64
2023/10/11 02:40:25;;;;;;;6.90;5.17;;;18.60;99.90;;;;;;5102523;27;20468;-63
2023/10/11 02:43:03;;;;;;;8.70;5.67;;;18.60;99.90;;;;;;5091860;28;20453;-63
2023/10/11 02:46:24;;;;;;;8.30;5.67;;;18.60;99.90;;;;;;5090221;28;20638;-63
2023/10/11 02:49:19;;;;;;;11.57;5.60;;;18.60;99.90;;;;;;4979625;28;20517;-64
2023/10/11 02:54:54;;;;;;;8.20;5.23;;;18.40;99.90;;;;;;4974102;28;21075;-64
2023/10/11 03:00:44;;;;;;;13.30;5.57;;;18.50;99.90;;;;;;5084984;28;20481;-63
2023/10/11 03:03:15;;;;;;;13.47;5.50;;;18.50;99.90;;;;;;5096864;28;20425;-64
2023/10/11 03:05:41;;;;;;;8.67;5.03;;;18.50;99.90;;;;;;5094346;28;21245;-63
2023/10/11 03:08:19;;;;;;;9.07;5.50;;;18.40;99.90;;;;;;5097461;28;20461;-64
2023/10/11 03:10:56;;;;;;;6.10;3.97;;;18.40;99.90;;;;;;5090145;28;20434;-64
2023/10/11 03:13:30;;;;;;;6.17;4.10;;;18.40;99.90;;;;;;5101904;28;20429;-63
2023/10/11 03:16:00;;;;;;;7.63;4.30;;;18.40;99.90;;;;;;5096508;28;20894;-63
2023/10/11 03:19:05;;;;;;;10.83;5.07;;;18.40;99.90;;;;;;5102228;28;21026;-63
2023/10/11 03:21:54;;;;;;;9.07;5.10;;;18.40;99.90;;;;;;5033385;28;20505;-64
2023/10/11 03:24:21;;;;;;;9.00;4.70;;;18.40;99.90;;;;;;5087401;28;20450;-63
2023/10/11 03:26:48;;;;;;;8.23;5.00;;;18.30;99.90;;;;;;5095519;28;20498;-64
2023/10/11 03:29:21;;;;;;;9.63;4.90;;;18.30;99.90;;;;;;5066010;28;20448;-64
2023/10/11 03:32:05;;;;;;;9.77;4.70;;;18.30;99.90;;;;;;5095334;28;20433;-64
2023/10/11 03:34:39;;;;;;;6.37;4.10;;;18.30;99.90;;;;;;5090617;28;20480;-62
2023/10/11 03:37:18;;;;;;;7.37;5.47;;;18.20;99.90;;;;;;5096010;28;21003;-64
2023/10/11 03:42:59;;;;;;;8.00;5.10;;;18.20;99.90;;;;;;5073534;28;20432;-63
2023/10/11 03:45:27;;;;;;;9.50;4.83;;;18.20;99.90;;;;;;5082384;28;20928;-64
2023/10/11 03:47:59;;;;;;;8.10;5.17;;;18.20;99.90;;;;;;5097271;28;20444;-64
2023/10/11 03:50:34;;;;;;;11.20;5.57;;;18.20;99.90;;;;;;5102619;28;20433;-63
2023/10/11 03:53:13;;;;;;;8.23;4.77;;;18.20;99.90;;;;;;5102316;28;20926;-63
2023/10/11 03:55:46;;;;;;;7.53;4.40;;;18.20;99.90;;;;;;5095364;28;20433;-64
2023/10/11 03:58:44;;;;;;;9.47;6.07;;;18.10;99.90;;;;;;5088072;28;20554;-63
2023/10/11 04:03:51;;;;;;;9.30;5.00;;;18.10;99.90;;;;;;5094479;28;20425;-63
2023/10/11 04:06:41;;;;;;;9.53;5.17;;;18.10;99.90;;;;;;5105966;28;20460;-63
2023/10/11 04:09:37;;;;;;;8.00;4.87;;;18.10;99.90;;;;;;5098710;28;20513;-64
2023/10/11 04:12:30;;;;;;;9.77;5.80;;;18.10;99.90;;;;;;5093666;28;20441;-64
2023/10/11 04:14:58;;;;;;;7.20;4.83;;;18.10;99.90;;;;;;5101066;28;20939;-63
2023/10/11 04:20:40;;;;;;;8.13;5.23;;;18.00;99.90;;;;;;5093611;28;20469;-64
2023/10/11 04:22:51;;;;;;;12.27;5.83;;;18.00;99.90;;;;;;5093778;28;20210;-63
2023/10/11 04:25:23;;;;;;;7.27;5.30;;;18.00;99.90;;;;;;5102417;28;20676;-64
2023/10/11 04:27:56;;;;;;;7.57;4.87;;;18.00;99.90;;;;;;5103076;28;20430;-64
2023/10/11 04:33:13;;;;;;;6.50;4.47;;;18.00;99.90;;;;;;5096018;28;20441;-63
2023/10/11 04:35:58;;;;;;;7.07;4.80;;;18.00;99.90;;;;;;5099512;28;20422;-64
2023/10/11 04:38:23;;;;;;;7.30;4.73;;;18.00;99.90;;;;;;5097869;28;20535;-63
2023/10/11 04:40:52;;;;;;;8.30;5.20;;;18.00;99.90;;;;;;5099712;28;21706;-64
2023/10/11 04:44:12;;;;;;;7.77;4.60;;;18.00;99.90;;;;;;5096134;28;20299;-63
2023/10/11 04:46:39;;;;;;;7.60;5.00;;;18.00;99.90;;;;;;5088164;28;20438;-63
2023/10/11 04:51:48;;;;;;;8.83;5.40;;;17.90;99.90;;;;;;5100382;28;20506;-63
2023/10/11 04:54:15;;;;;;;11.50;5.07;;;17.90;99.90;;;;;;5095216;28;20431;-63
2023/10/11 04:59:20;;;;;;;8.40;4.80;;;17.90;99.90;;;;;;5098043;28;20501;-63
2023/10/11 05:04:33;;;;;;;9.60;5.40;;;17.90;99.90;;;;;;5090729;28;20940;-64
2023/10/11 05:07:07;;;;;;;6.47;4.90;;;17.90;99.90;;;;;;5104763;28;20421;-64
2023/10/11 05:13:13;;;;;;;5.73;4.57;;;17.90;99.90;;;;;;5095970;28;20804;-63
2023/10/11 05:15:47;;;;;;;10.43;5.53;;;17.90;99.90;;;;;;4998727;28;20438;-64
2023/10/11 05:18:43;;;;;;;6.43;4.97;;;17.90;99.90;;;;;;5002015;28;20470;-63
2023/10/11 05:36:49;;;;;;;8.20;5.13;;;17.80;99.90;;;;;;4998021;28;21003;-64
2023/10/11 05:51:13;;;;;;;7.93;4.93;;;17.80;99.90;;;;;;5094954;28;20433;-63
2023/10/11 05:53:40;;;;;;;15.17;4.70;;;17.80;99.90;;;;;;5105155;28;21103;-63
2023/10/11 05:59:38;;;;;;;7.97;5.70;;;17.80;99.90;;;;;;5093559;28;20474;-63
2023/10/11 06:02:13;;;;;;;7.53;4.97;;;17.80;99.90;;;;;;5032895;28;20464;-64
2023/10/11 06:04:42;;;;;;;8.63;4.80;;;17.80;99.90;;;;;;5040815;28;20566;-64
2023/10/11 06:07:15;;;;;;;13.80;5.27;;;17.80;99.90;;;;;;5081375;28;20430;-63
2023/10/11 06:10:06;;;;;;;7.60;4.53;;;17.80;99.90;;;;;;5102434;28;20441;-64
2023/10/11 06:12:38;;;;;;;9.40;4.77;;;17.80;99.90;;;;;;5105564;28;20452;-64
2023/10/11 06:15:16;;;;;;;7.50;4.50;;;17.80;99.90;;;;;;5104621;28;20433;-63
2023/10/11 06:17:54;;;;;;;8.50;4.80;;;17.90;99.90;;;;;;5094335;28;21301;-64
2023/10/11 06:20:25;;;;;;;7.17;5.07;;;17.90;99.90;;;;;;5089030;28;20490;-63
2023/10/11 06:22:51;;;;;;;5.33;4.83;;;17.90;99.90;;;;;;5076190;28;20463;-63
2023/10/11 06:26:28;;;;;;;7.97;5.30;;;18.00;99.90;;;;;;5096880;28;20430;-63
2023/10/11 06:28:15;;;;;;;6.83;4.80;;;17.90;99.90;;;;;;5083306;28;20271;-63
2023/10/11 06:31:14;;;;;;;9.13;4.70;;;18.00;99.90;;;;;;5057753;28;20470;-64
2023/10/11 06:37:41;;;;;;;6.43;4.27;;;18.00;99.90;;;;;;4982107;28;20434;-62
2023/10/11 06:46:50;;;;;;;7.83;4.30;;;18.00;99.90;;;;;;5081123;28;21218;-64
2023/10/11 06:49:17;;;;;;;8.37;4.50;;;18.00;99.90;;;;;;5102157;28;21273;-64
2023/10/11 06:51:43;;;;;;;9.13;4.30;;;17.90;99.90;;;;;;5103710;28;21000;-63
2023/10/11 06:54:09;;;;;;;8.13;4.37;;;17.90;99.90;;;;;;5103861;28;20434;-64
2023/10/11 06:56:38;;;;;;;11.17;4.77;;;18.00;99.90;;;;;;5102407;28;20187;-64
2023/10/11 06:59:04;;;;;;;5.50;4.17;;;18.00;99.90;;;;;;5103378;28;20229;-64
2023/10/11 07:01:34;;;;;;;6.50;3.73;;;18.10;99.90;;;;;;5102813;28;20449;-64
2023/10/11 07:04:00;;;;;;;6.63;4.73;;;18.10;99.90;;;;;;5103460;28;20184;-63
2023/10/11 07:06:25;;;;;;;8.10;3.90;;;18.10;99.90;;;;;;5102341;28;20996;-63
2023/10/11 07:08:53;;;;;;;13.70;4.00;;;18.20;99.90;;;;;;5103273;28;20176;-64
2023/10/11 07:11:50;;;;;;;7.40;4.40;;;18.20;99.90;;;;;;5102839;28;21015;-63
2023/10/11 07:14:16;;;;;;;7.73;4.03;;;18.20;99.90;;;;;;5099910;28;20482;-64
2023/10/11 07:16:44;;;;;;;7.77;5.00;;;18.30;99.90;;;;;;5102378;28;20433;-64
2023/10/11 07:19:11;;;;;;;10.20;4.83;;;18.30;99.90;;;;;;5103318;28;20469;-64
2023/10/11 07:26:57;;;;;;;5.67;4.33;;;18.50;99.90;;;;;;5102887;28;20433;-63
2023/10/11 07:29:23;;;;;;;8.80;5.40;;;18.50;99.90;;;;;;5102782;28;20452;-63
2023/10/11 07:31:49;;;;;;;6.57;3.57;;;18.60;99.90;;;;;;5102668;28;20441;-64
2023/10/11 07:34:21;;;;;;;7.63;4.60;;;18.70;99.90;;;;;;5103227;28;20437;-65
2023/10/11 07:36:51;;;;;;;5.33;3.80;;;18.80;99.90;;;;;;5102939;28;20191;-63
2023/10/11 07:41:52;;;;;;;10.50;5.23;;;19.00;99.90;;;;;;5099978;28;20446;-63
2023/10/11 07:44:18;;;;;;;6.40;4.23;;;19.10;99.90;;;;;;5106961;28;20433;-63
2023/10/11 07:46:48;;;;;;;7.83;4.23;;;19.30;99.90;;;;;;5106466;28;20520;-63
2023/10/11 07:49:23;;;;;;;10.00;4.23;;;19.50;99.90;;;;;;5107122;28;20433;-63
2023/10/11 07:51:53;;;;;;;7.37;4.57;;;19.70;99.90;;;;;;5107167;28;20417;-63
2023/10/11 07:54:21;;;;;;;7.00;4.07;;;19.80;99.90;;;;;;5106597;28;20468;-63
2023/10/11 07:57:00;;;;;;;6.43;4.40;;;19.90;99.90;;;;;;5105511;28;20999;-63
2023/10/11 07:59:27;;;;;;;9.47;4.10;;;20.10;99.90;;;;;;5083419;28;20469;-63
2023/10/11 08:01:58;;;;;;;7.83;3.73;;;20.10;99.90;;;;;;5106898;28;20418;-63
2023/10/11 08:04:28;;;;;;;4.83;4.10;;;20.20;99.90;;;;;;5106155;28;20953;-63
2023/10/11 08:06:59;;;;;;;6.50;4.30;;;20.30;99.90;;;;;;5106139;28;20421;-63
2023/10/11 08:09:27;;;;;;;7.77;4.20;;;20.50;99.90;;;;;;5088009;28;20521;-63
2023/10/11 08:11:54;;;;;;;7.57;4.30;;;20.50;99.90;;;;;;5106640;28;20435;-63
2023/10/11 08:14:23;;;;;;;11.70;4.43;;;20.60;99.90;;;;;;5106151;28;20767;-63
2023/10/11 08:16:49;;;;;;;10.43;4.53;;;20.60;99.90;;;;;;5106650;28;20507;-64
2023/10/11 08:19:15;;;;;;;7.90;5.13;;;20.70;99.90;;;;;;5106560;28;21300;-63
2023/10/11 08:21:41;;;;;;;4.53;3.93;;;20.80;99.90;;;;;;5105666;28;20425;-64
2023/10/11 08:24:15;;;;;;;8.07;4.40;;;20.90;99.90;;;;;;5106544;28;20179;-64
2023/10/11 08:26:42;;;;;;;6.80;4.47;;;21.00;99.90;;;;;;5102082;28;20286;-63
2023/10/11 08:29:30;;;;;;;8.33;5.10;;;21.10;99.90;;;;;;5106116;28;20455;-63
2023/10/11 08:32:00;;;;;;;7.27;4.30;;;21.00;99.90;;;;;;5106064;28;21007;-63
2023/10/11 08:34:27;;;;;;;11.13;4.33;;;21.00;99.90;;;;;;5105346;28;20483;-64
2023/10/11 08:36:56;;;;;;;5.53;3.70;;;21.00;99.90;;;;;;5106119;28;20445;-64
2023/10/11 08:39:27;;;;;;;5.40;3.73;;;21.10;99.90;;;;;;5105411;28;20508;-64
2023/10/11 08:41:58;;;;;;;6.93;4.33;;;21.20;99.90;;;;;;5106253;28;20437;-63
2023/10/11 08:44:27;;;;;;;4.83;4.00;;;21.40;99.90;;;;;;5104913;28;21185;-64
2023/10/11 08:46:56;;;;;;;6.80;4.30;;;21.40;99.90;;;;;;5105459;28;20433;-63
2023/10/11 08:49:22;;;;;;;5.50;4.50;;;21.50;99.90;;;;;;5104410;28;20449;-64
2023/10/11 08:51:56;;;;;;;7.47;4.50;;;21.40;99.90;;;;;;5105778;28;20518;-63
2023/10/11 08:54:26;;;;;;;5.93;4.40;;;21.50;99.90;;;;;;5105166;28;20463;-63
2023/10/11 08:56:57;;;;;;;6.20;4.53;;;21.60;99.90;;;;;;5105572;28;20421;-63
2023/10/11 08:59:27;;;;;;;7.20;4.63;;;21.70;99.90;;;;;;5082133;28;20473;-63
2023/10/11 09:02:00;;;;;;;5.10;3.90;;;21.80;99.90;;;;;;5105930;28;20440;-63
2023/10/11 09:04:27;;;;;;;5.97;3.77;;;21.80;99.90;;;;;;5104902;28;20425;-63
2023/10/11 09:06:57;;;;;;;6.83;4.87;;;21.90;99.90;;;;;;5105466;28;20417;-63
2023/10/11 09:09:39;;;;;;;4.67;3.63;;;21.90;99.90;;;;;;5102182;28;20498;-63
2023/10/11 09:12:28;;;;;;;6.20;4.90;;;21.90;99.90;;;;;;5105227;28;20442;-64
2023/10/11 09:15:04;;;;;;;8.03;4.93;;;22.10;99.90;;;;;;5098235;28;20479;-64
2023/10/11 09:17:38;;;;;;;6.20;4.27;;;22.00;99.90;;;;;;5103355;28;20443;-64
2023/10/11 09:20:15;;;;;;;9.13;5.13;;;22.20;99.90;;;;;;5105258;28;20480;-64
2023/10/11 09:22:47;;;;;;;9.23;4.27;;;22.20;99.90;;;;;;5096863;28;20425;-64
2023/10/11 09:25:23;;;;;;;9.23;5.00;;;22.20;99.90;;;;;;5105106;28;20433;-64
2023/10/11 09:27:50;;;;;;;7.70;3.70;;;22.30;99.90;;;;;;5098057;28;20433;-63
2023/10/11 09:30:19;;;;;;;7.60;4.77;;;22.40;99.90;;;;;;5104668;28;20449;-64
2023/10/11 09:32:50;;;;;;;8.97;4.80;;;22.40;99.90;;;;;;5104753;28;20425;-64
2023/10/11 09:35:26;;;;;;;9.47;4.33;;;22.50;99.80;;;;;;5101403;28;20857;-64
2023/10/11 09:37:56;;;;;;;6.53;4.50;;;22.60;99.80;;;;;;5104761;28;20452;-64
2023/10/11 09:40:36;;;;;;;6.67;4.87;;;22.60;99.50;;;;;;5104233;28;20451;-64
2023/10/11 09:43:02;;;;;;;9.03;5.13;;;22.70;99.60;;;;;;5105295;28;21133;-64
2023/10/11 09:45:47;;;;;;;8.87;4.20;;;22.70;99.90;;;;;;5104501;28;20499;-64
2023/10/11 09:48:17;;;;;;;11.70;5.43;;;22.80;99.90;;;;;;5085088;28;20175;-63
2023/10/11 09:50:43;;;;;;;7.20;4.07;;;22.90;99.90;;;;;;5104262;28;20433;-63
2023/10/11 09:53:13;;;;;;;9.70;4.97;;;22.90;99.60;;;;;;5104753;28;20437;-63
2023/10/11 09:56:17;;;;;;;10.33;5.40;;;23.00;99.30;;;;;;5085675;28;20448;-63
2023/10/11 09:58:54;;;;;;;6.73;4.60;;;22.80;99.00;;;;;;5089838;28;20488;-63
2023/10/11 10:02:04;;;;;;;8.80;4.53;;;22.80;99.30;;;;;;5099680;28;20494;-63
2023/10/11 10:04:54;;;;;;;10.43;5.20;;;22.80;99.00;;;;;;5043574;28;20466;-63
2023/10/11 10:07:32;;;;;;;8.90;4.60;;;22.80;99.00;;;;;;5098495;28;20434;-63
2023/10/11 10:10:00;;;;;;;7.50;5.00;;;22.80;99.30;;;;;;5086330;28;20482;-63
2023/10/11 10:12:31;;;;;;;7.07;4.60;;;22.80;99.30;;;;;;5103496;28;20437;-63
2023/10/11 10:15:07;;;;;;;9.93;5.33;;;22.80;99.70;;;;;;5104369;28;20441;-63
2023/10/11 10:17:42;;;;;;;6.57;3.90;;;22.80;99.70;;;;;;5103211;28;20500;-63
2023/10/11 10:20:33;;;;;;;10.53;5.87;;;22.90;99.90;;;;;;5104092;28;20479;-63
2023/10/11 10:23:14;;;;;;;6.23;4.80;;;23.00;99.60;;;;;;5104247;28;20501;-63
2023/10/11 10:25:45;;;;;;;11.13;5.10;;;22.90;99.90;;;;;;5103481;28;20425;-63
2023/10/11 10:28:36;;;;;;;8.17;4.73;;;23.00;99.90;;;;;;5104138;28;20532;-63
2023/10/11 10:31:16;;;;;;;10.67;4.60;;;22.90;99.90;;;;;;5104100;28;20471;-63
2023/10/11 10:34:13;;;;;;;8.47;5.43;;;22.90;99.90;;;;;;5060345;28;21065;-64
2023/10/11 10:36:40;;;;;;;7.90;4.73;;;22.90;99.90;;;;;;5047982;28;20435;-64
2023/10/11 10:39:36;;;;;;;7.77;4.40;;;22.80;99.90;;;;;;5040343;28;20432;-63
2023/10/11 10:42:15;;;;;;;10.30;5.23;;;22.70;99.90;;;;;;5036134;28;20434;-63
2023/10/11 10:44:53;;;;;;;8.53;4.83;;;22.50;99.90;;;;;;5044502;28;20440;-63
2023/10/11 10:47:24;;;;;;;8.63;4.40;;;22.50;99.90;;;;;;5039253;28;20490;-63
2023/10/11 10:49:55;;;;;;;7.50;4.90;;;22.50;99.90;;;;;;5035294;28;20439;-63
2023/10/11 10:52:25;;;;;;;7.50;4.80;;;22.40;99.90;;;;;;5044605;28;20496;-63
2023/10/11 10:54:54;;;;;;;15.60;4.50;;;22.30;99.90;;;;;;5049707;28;20499;-63
2023/10/11 10:57:27;;;;;;;7.47;4.73;;;22.30;99.90;;;;;;5045645;28;20938;-63
2023/10/11 10:59:54;;;;;;;9.87;4.30;;;22.40;99.90;;;;;;5042543;28;20804;-63
2023/10/11 11:02:20;;;;;;;9.47;5.10;;;22.40;99.90;;;;;;5047592;28;20523;-63
2023/10/11 11:04:46;;;;;;;8.80;4.50;;;22.40;99.90;;;;;;5044937;28;20470;-63
2023/10/11 11:07:22;;;;;;;12.67;5.00;;;22.50;99.90;;;;;;5050114;28;20929;-63
2023/10/11 11:09:54;;;;;;;6.90;5.37;;;22.50;99.90;;;;;;5046357;28;21042;-63
2023/10/11 11:12:27;;;;;;;7.93;5.03;;;22.50;99.90;;;;;;5044511;28;20510;-63
2023/10/11 11:14:54;;;;;;;10.23;4.23;;;22.60;99.90;;;;;;5047413;28;20436;-63
2023/10/11 11:17:23;;;;;;;8.10;4.73;;;22.60;99.90;;;;;;5046196;28;20447;-63
2023/10/11 11:23:00;;;;;;;13.00;4.97;;;22.80;99.90;;;;;;5043889;28;20482;-64
2023/10/11 11:28:25;;;;;;;11.80;4.70;;;22.90;99.90;;;;;;5047490;28;20177;-64
2023/10/11 11:31:10;;;;;;;9.43;5.00;;;23.00;99.90;;;;;;5047989;28;20194;-64
2023/10/11 11:33:40;;;;;;;8.30;4.90;;;23.10;99.90;;;;;;5053683;28;20836;-64
2023/10/11 11:36:18;;;;;;;9.50;5.30;;;23.30;99.80;;;;;;5046201;28;20582;-64
2023/10/11 11:38:47;;;;;;;13.23;4.90;;;23.40;99.90;;;;;;5036818;28;21126;-64
2023/10/11 11:41:16;;;;;;;9.97;4.70;;;23.50;99.90;;;;;;5048266;28;20440;-64
2023/10/11 11:43:46;;;;;;;11.03;4.70;;;23.60;99.90;;;;;;5040082;28;20488;-64
2023/10/11 11:46:15;;;;;;;10.07;5.13;;;23.70;99.80;;;;;;5025686;28;20444;-64
2023/10/11 11:48:41;;;;;;;16.73;6.20;;;23.80;99.30;;;;;;5040718;28;20500;-65
2023/10/11 11:51:19;;;;;;;11.30;4.80;;;23.80;99.40;;;;;;5030955;28;20436;-63
2023/10/11 11:53:45;;;;;;;16.33;5.27;;;23.80;99.30;;;;;;5026319;28;21180;-63
2023/10/11 11:56:14;;;;;;;13.47;5.20;;;23.80;99.30;;;;;;5032927;28;20556;-64
2023/10/11 11:58:46;;;;;;;12.40;5.43;;;23.80;99.30;;;;;;5026751;28;20178;-63
2023/10/11 12:01:19;;;;;;;11.93;5.07;;;23.90;99.20;;;;;;5027536;28;20432;-63
2023/10/11 12:03:53;;;;;;;15.53;5.33;;;23.90;99.30;;;;;;5028066;28;20536;-63
2023/10/11 12:06:22;;;;;;;18.43;6.10;;;23.90;99.30;;;;;;5035138;28;20827;-63
2023/10/11 12:08:58;;;;;;;16.80;4.60;;;23.90;99.40;;;;;;5030313;28;20519;-64
2023/10/11 12:11:33;;;;;;;21.27;6.10;;;24.00;99.90;;;;;;5027381;28;20429;-64
2023/10/11 12:14:00;;;;;;;12.17;6.07;;;24.10;99.40;;;;;;5034706;28;20438;-64
2023/10/11 12:16:28;;;;;;;13.20;5.50;;;24.20;99.70;;;;;;5028219;28;20444;-64
2023/10/11 12:19:00;;;;;;;12.77;5.43;;;24.20;99.40;;;;;;5035688;28;20424;-65
2023/10/11 12:21:27;;;;;;;11.53;4.80;;;24.20;99.30;;;;;;5029674;28;20532;-65
2023/10/11 12:23:52;;;;;;;14.00;5.33;;;24.20;99.10;;;;;;5032336;28;20433;-64
2023/10/11 12:26:20;;;;;;;8.70;5.00;;;24.20;99.70;;;;;;5028648;28;21155;-64
2023/10/11 12:28:47;;;;;;;13.13;5.40;;;24.20;99.70;;;;;;5033169;28;20224;-64
2023/10/11 12:31:13;;;;;;;12.50;5.60;;;24.30;99.90;;;;;;5030335;28;20452;-64
2023/10/11 12:33:39;;;;;;;9.40;4.60;;;24.20;99.50;;;;;;5036651;28;20480;-64
2023/10/11 12:36:06;;;;;;;17.80;5.90;;;24.20;99.80;;;;;;5035319;28;20217;-65
2023/10/11 12:38:39;;;;;;;20.70;6.10;;;24.10;99.40;;;;;;5035310;28;20451;-64
2023/10/11 12:41:08;;;;;;;11.93;5.40;;;24.10;99.90;;;;;;5034083;28;20920;-64
2023/10/11 12:43:34;;;;;;;13.80;5.97;;;24.10;99.70;;;;;;5031397;28;20446;-65
2023/10/11 12:46:00;;;;;;;9.97;5.03;;;24.10;99.50;;;;;;5026015;28;20428;-64
2023/10/11 12:48:26;;;;;;;16.47;4.97;;;24.10;99.70;;;;;;5039972;28;20247;-65
2023/10/11 12:50:52;;;;;;;12.13;4.90;;;24.20;99.80;;;;;;5027764;28;20536;-64
2023/10/11 12:53:17;;;;;;;14.50;4.90;;;24.20;99.90;;;;;;5035752;28;20484;-65
2023/10/11 12:55:48;;;;;;;12.83;5.30;;;24.30;99.70;;;;;;5028341;28;20236;-64
2023/10/11 12:58:15;;;;;;;13.80;5.27;;;24.20;99.70;;;;;;5028561;28;20183;-64
2023/10/11 13:00:58;;;;;;;10.43;5.30;;;24.20;99.90;;;;;;5030906;28;20441;-64
2023/10/11 13:03:37;;;;;;;12.63;5.00;;;24.20;99.90;;;;;;5027839;28;20440;-65
2023/10/11 13:06:09;;;;;;;11.47;4.53;;;24.20;99.90;;;;;;5035027;28;20481;-64
2023/10/11 13:08:37;;;;;;;12.93;4.93;;;24.20;99.90;;;;;;5028679;28;20430;-64
2023/10/11 13:11:05;;;;;;;10.40;5.20;;;24.20;99.90;;;;;;5030083;28;20437;-64
2023/10/11 13:13:32;;;;;;;11.50;5.23;;;24.30;99.90;;;;;;5028248;28;21135;-64
2023/10/11 13:16:00;;;;;;;13.70;5.40;;;24.30;99.90;;;;;;5032172;28;20444;-64
2023/10/11 13:18:32;;;;;;;8.90;4.37;;;24.30;99.90;;;;;;5029307;28;20990;-64
2023/10/11 13:20:59;;;;;;;11.50;5.03;;;24.30;99.90;;;;;;5024272;28;20459;-64
2023/10/11 13:23:29;;;;;;;10.63;4.20;;;24.30;99.90;;;;;;5030866;28;20441;-64
2023/10/11 13:26:08;;;;;;;8.07;4.27;;;24.30;99.90;;;;;;5028085;28;20552;-64
2023/10/11 13:28:35;;;;;;;12.63;4.80;;;24.20;99.90;;;;;;5029932;28;20429;-64
2023/10/11 13:31:02;;;;;;;10.83;5.13;;;24.10;99.90;;;;;;5022493;28;20491;-64
2023/10/11 13:33:31;;;;;;;9.03;4.37;;;24.00;99.90;;;;;;5023410;28;20511;-64
2023/10/11 13:36:01;;;;;;;9.93;4.87;;;23.90;99.90;;;;;;5030173;28;20429;-64
2023/10/11 13:38:30;;;;;;;11.57;4.67;;;23.80;99.90;;;;;;5029213;28;20444;-63
2023/10/11 13:40:58;;;;;;;8.20;4.30;;;23.70;99.90;;;;;;5031459;28;20841;-63
2023/10/11 13:43:24;;;;;;;9.30;4.50;;;23.70;99.90;;;;;;5026968;28;20428;-63
2023/10/11 13:46:01;;;;;;;11.13;4.93;;;23.60;99.90;;;;;;5024971;28;20448;-64
2023/10/11 13:48:36;;;;;;;10.57;5.27;;;23.60;99.90;;;;;;5031101;28;20930;-64
2023/10/11 13:51:03;;;;;;;9.13;4.77;;;23.50;99.90;;;;;;5028927;28;20431;-64
2023/10/11 13:53:30;;;;;;;8.77;5.03;;;23.50;99.90;;;;;;5033720;28;20511;-64
2023/10/11 13:56:09;;;;;;;8.20;5.00;;;23.40;99.90;;;;;;5030172;28;20436;-64
2023/10/11 13:58:35;;;;;;;8.57;4.17;;;23.40;99.90;;;;;;5025515;28;20524;-63
2023/10/11 14:01:02;;;;;;;11.30;4.50;;;23.30;99.90;;;;;;5032085;28;20523;-63
2023/10/11 14:06:20;;;;;;;9.60;5.10;;;23.20;99.90;;;;;;5032615;28;20439;-63
2023/10/11 14:08:47;;;;;;;7.73;4.17;;;23.20;99.90;;;;;;5022710;28;20440;-64
2023/10/11 14:11:14;;;;;;;11.20;4.67;;;23.20;99.90;;;;;;5026657;28;20448;-62
2023/10/11 14:13:48;;;;;;;10.00;4.77;;;23.10;99.90;;;;;;5029819;28;20472;-64
2023/10/11 14:16:14;;;;;;;13.10;4.30;;;23.00;99.90;;;;;;5027499;28;20444;-64
2023/10/11 14:18:40;;;;;;;8.90;4.63;;;23.00;99.90;;;;;;5029704;28;20433;-65
2023/10/11 14:21:12;;;;;;;5.67;4.30;;;23.00;99.90;;;;;;5028682;28;20938;-64
2023/10/11 14:23:44;;;;;;;11.17;4.60;;;22.90;99.90;;;;;;5029245;28;20452;-64
2023/10/11 14:26:12;;;;;;;12.70;4.43;;;22.90;99.90;;;;;;5026347;28;20468;-64
2023/10/11 14:28:38;;;;;;;11.90;4.03;;;22.90;99.90;;;;;;5029882;28;20464;-64
2023/10/11 14:31:04;;;;;;;12.17;5.17;;;22.90;99.90;;;;;;5022162;28;20981;-64
2023/10/11 14:33:29;;;;;;;8.80;4.70;;;22.90;99.90;;;;;;5030427;28;20680;-64
2023/10/11 14:35:55;;;;;;;11.17;4.50;;;22.90;99.90;;;;;;5029452;28;20218;-64
2023/10/11 14:38:21;;;;;;;13.23;4.53;;;22.80;99.90;;;;;;5024090;28;20194;-64
2023/10/11 14:40:48;;;;;;;11.00;4.90;;;22.80;99.90;;;;;;5030746;28;20181;-64
2023/10/11 14:43:16;;;;;;;10.00;4.10;;;22.70;99.90;;;;;;5030784;28;20221;-64
2023/10/11 14:45:46;;;;;;;10.17;4.73;;;22.70;99.90;;;;;;5016717;28;20793;-64
2023/10/11 14:48:12;;;;;;;9.43;4.70;;;22.60;99.90;;;;;;5025285;28;20439;-65
2023/10/11 14:50:38;;;;;;;9.33;4.80;;;22.60;99.90;;;;;;5033425;28;20451;-64